Columbia, Iowa
Current Conditions -  °F | °C
As of 1:55 AM on Friday 31 Oct 2014 (Local Time) from KOXV Reporting Station
Overcast Overcast  
Wind Chill: 33°   Ceiling: 3600
Heat Index: 43°   Visibility: 10mi
Dew Point: 30°   Wind: 24mph
Humidity: 61%   Direction: 340°NNW
Pressure: 30.26"   Gusts: 33mph
Location:  41.18°N, 93.15°W
Report Text: KOXV 310655Z AUTO 34021G29KT 10SM OVC036 06/M01 A3026 RMK AO2
Loading
Personal Weather Stations






























Interactive Weather Map
Tropical Storm Tracking
New forecast layout! Learn more

10-Day Weather Forecast

Advertisements
Track Severe Weather on mobile